Time;durP1;ratioP1;P1;durP2;ratioP2;P2;SDS_P1;SDS_P2;PMS_P1;PMS_P2;Temp;Humidity;BMP_temperature;BMP_pressure;BME280_temperature;BME280_humidity;BME280_pressure;Samples;Min_cycle;Max_cycle;Signal;HPM_P1;HPM_P2
2021/12/29 00:01:45;;;;;;;10.87;2.27;;;7.50;99.90;;;;;;5073516;28;20024;-78
2021/12/29 00:04:10;;;;;;;9.60;2.37;;;7.50;99.90;;;;;;5071679;28;20024;-78
2021/12/29 00:06:36;;;;;;;10.50;2.40;;;7.60;99.90;;;;;;5073076;28;20028;-78
2021/12/29 00:09:02;;;;;;;11.70;2.10;;;7.60;99.90;;;;;;5072055;28;20020;-78
2021/12/29 00:11:28;;;;;;;9.20;2.30;;;7.60;99.90;;;;;;5072997;28;20016;-77
2021/12/29 00:13:54;;;;;;;7.83;2.53;;;7.60;99.90;;;;;;5073498;28;20024;-77
2021/12/29 00:16:19;;;;;;;9.30;2.50;;;7.60;99.90;;;;;;5072883;28;20036;-77
2021/12/29 00:18:45;;;;;;;8.33;2.80;;;7.70;99.90;;;;;;5073014;28;20042;-77
2021/12/29 00:21:11;;;;;;;9.77;2.13;;;7.60;99.90;;;;;;5071527;28;20052;-77
2021/12/29 00:23:37;;;;;;;9.13;1.83;;;7.50;99.90;;;;;;5072801;28;20496;-77
2021/12/29 00:26:04;;;;;;;7.17;2.03;;;7.60;99.90;;;;;;5073625;28;20095;-77
2021/12/29 00:28:29;;;;;;;9.63;1.97;;;7.60;99.90;;;;;;5076932;28;20028;-77
2021/12/29 00:30:55;;;;;;;9.00;1.97;;;7.70;99.90;;;;;;5076885;28;20107;-78
2021/12/29 00:33:21;;;;;;;7.13;1.73;;;7.70;99.90;;;;;;5077023;28;20021;-78
2021/12/29 00:35:49;;;;;;;11.20;2.17;;;7.70;99.90;;;;;;5076803;28;20055;-77
2021/12/29 00:38:15;;;;;;;7.63;2.13;;;7.70;99.90;;;;;;5076809;28;20024;-77
2021/12/29 00:40:41;;;;;;;9.43;2.27;;;7.80;99.90;;;;;;5076694;28;20027;-77
2021/12/29 00:43:08;;;;;;;6.47;1.60;;;7.80;99.90;;;;;;5076955;28;20024;-77
2021/12/29 00:45:39;;;;;;;8.00;1.97;;;7.70;99.90;;;;;;5075176;28;20098;-77
2021/12/29 00:48:08;;;;;;;8.20;1.90;;;7.80;99.90;;;;;;5076779;28;20082;-77
2021/12/29 00:50:34;;;;;;;9.40;2.70;;;7.80;99.90;;;;;;5076790;28;20097;-78
2021/12/29 00:53:00;;;;;;;6.33;1.73;;;7.80;99.90;;;;;;5076770;28;20128;-78
2021/12/29 00:55:26;;;;;;;9.00;1.70;;;7.70;99.90;;;;;;5076690;28;20050;-77
2021/12/29 00:57:51;;;;;;;10.27;1.77;;;7.80;99.90;;;;;;5076309;28;20388;-77
2021/12/29 01:00:20;;;;;;;9.90;2.27;;;7.80;99.90;;;;;;5076582;28;20024;-77
2021/12/29 01:02:46;;;;;;;4.77;1.50;;;7.90;99.90;;;;;;5075021;28;20028;-77
2021/12/29 01:05:14;;;;;;;9.20;1.57;;;7.90;99.90;;;;;;5076470;28;20361;-76
2021/12/29 01:07:40;;;;;;;8.43;2.13;;;7.90;99.90;;;;;;5076355;28;20031;-78
2021/12/29 01:10:06;;;;;;;11.77;2.37;;;7.80;99.90;;;;;;5076369;28;20021;-78
2021/12/29 01:12:32;;;;;;;8.40;2.73;;;7.80;99.90;;;;;;5076022;28;20020;-78
2021/12/29 01:14:58;;;;;;;8.40;1.93;;;7.80;99.90;;;;;;5076369;28;20021;-78
2021/12/29 01:17:24;;;;;;;8.10;2.63;;;7.80;99.90;;;;;;5074698;28;20070;-78
2021/12/29 01:19:53;;;;;;;12.57;2.53;;;7.70;99.90;;;;;;5076450;28;20086;-78
2021/12/29 01:22:19;;;;;;;10.60;2.13;;;7.70;99.90;;;;;;5076006;28;20508;-78
2021/12/29 01:24:46;;;;;;;6.43;1.57;;;7.80;99.90;;;;;;5075882;28;20446;-78
2021/12/29 01:27:12;;;;;;;8.00;1.70;;;7.90;99.90;;;;;;5075800;28;20021;-78
2021/12/29 01:29:38;;;;;;;10.00;2.40;;;8.00;99.90;;;;;;5076337;28;20062;-78
2021/12/29 01:32:04;;;;;;;9.33;2.17;;;8.00;99.90;;;;;;5075674;28;20470;-78
2021/12/29 01:34:30;;;;;;;6.30;2.00;;;8.00;99.90;;;;;;5075668;28;20093;-77
2021/12/29 01:36:55;;;;;;;9.57;2.10;;;8.10;99.90;;;;;;5075907;28;20033;-78
2021/12/29 01:39:22;;;;;;;10.40;2.10;;;8.10;99.90;;;;;;5076213;28;20021;-79
2021/12/29 01:41:50;;;;;;;12.60;2.93;;;8.10;99.90;;;;;;5075890;28;20029;-78
2021/12/29 01:44:17;;;;;;;10.40;2.53;;;8.10;99.90;;;;;;5075558;28;20036;-78
2021/12/29 01:46:44;;;;;;;10.20;2.17;;;8.00;99.90;;;;;;5075605;28;20532;-79
2021/12/29 01:49:10;;;;;;;7.13;1.80;;;8.00;99.90;;;;;;5075444;28;20078;-78
2021/12/29 01:51:42;;;;;;;9.63;2.00;;;8.00;99.90;;;;;;5075868;28;20037;-78
2021/12/29 01:54:23;;;;;;;9.03;1.93;;;8.00;99.90;;;;;;5075274;28;20120;-78
2021/12/29 01:56:54;;;;;;;10.93;2.13;;;8.10;99.90;;;;;;5075366;28;20486;-78
2021/12/29 01:59:21;;;;;;;14.43;3.20;;;8.10;99.90;;;;;;5075888;28;20024;-78
2021/12/29 02:01:47;;;;;;;9.13;2.10;;;8.10;99.90;;;;;;5075190;28;20087;-78
2021/12/29 02:04:12;;;;;;;9.07;1.90;;;8.10;99.90;;;;;;5075842;28;20048;-78
2021/12/29 02:06:38;;;;;;;10.83;2.87;;;8.20;99.90;;;;;;5075023;28;20477;-78
2021/12/29 02:09:05;;;;;;;13.77;2.70;;;8.10;99.90;;;;;;5075062;28;20032;-78
2021/12/29 02:11:32;;;;;;;5.90;1.97;;;8.20;99.90;;;;;;5073744;28;20128;-79
2021/12/29 02:14:04;;;;;;;13.53;2.90;;;8.10;99.90;;;;;;5074986;28;20457;-78
2021/12/29 02:16:30;;;;;;;9.93;2.33;;;8.10;99.90;;;;;;5075215;28;20033;-78
2021/12/29 02:18:58;;;;;;;11.93;2.07;;;8.10;99.90;;;;;;5074865;28;20024;-78
2021/12/29 02:21:26;;;;;;;11.67;2.53;;;8.20;99.90;;;;;;5075098;28;20457;-78
2021/12/29 02:26:31;;;;;;;12.63;2.88;;;8.20;99.90;;;;;;5074786;28;20148;-78
2021/12/29 02:28:57;;;;;;;10.30;2.40;;;8.10;99.90;;;;;;5075238;28;20027;-79
2021/12/29 02:31:24;;;;;;;11.63;2.40;;;8.00;99.90;;;;;;5074783;28;20107;-78
2021/12/29 02:33:51;;;;;;;8.23;2.37;;;8.00;99.90;;;;;;5074928;28;20024;-78
2021/12/29 02:36:18;;;;;;;8.13;2.00;;;8.00;99.90;;;;;;5074510;28;20103;-78
2021/12/29 02:38:48;;;;;;;10.20;2.30;;;8.00;99.90;;;;;;5075002;28;20016;-78
2021/12/29 02:41:14;;;;;;;10.47;2.43;;;8.00;99.90;;;;;;5074931;28;20020;-78
2021/12/29 02:43:41;;;;;;;15.67;3.33;;;8.00;99.90;;;;;;5074320;28;20021;-79
2021/12/29 02:46:11;;;;;;;10.67;2.10;;;8.00;99.90;;;;;;5074594;28;20020;-79
2021/12/29 02:48:47;;;;;;;9.93;2.40;;;8.10;99.90;;;;;;5074041;28;20024;-78
2021/12/29 02:51:13;;;;;;;7.63;1.77;;;8.10;99.90;;;;;;5072921;28;20506;-78
2021/12/29 02:53:38;;;;;;;9.67;1.90;;;8.10;99.90;;;;;;5074246;28;20048;-77
2021/12/29 02:56:05;;;;;;;13.43;2.40;;;8.10;99.90;;;;;;5074564;28;20147;-78
2021/12/29 02:58:31;;;;;;;9.97;2.27;;;8.10;99.90;;;;;;5074081;28;20357;-78
2021/12/29 03:00:59;;;;;;;8.10;2.27;;;8.00;99.90;;;;;;5072805;28;20017;-77
2021/12/29 03:03:28;;;;;;;8.47;2.43;;;8.00;99.90;;;;;;5072660;28;20024;-77
2021/12/29 03:05:54;;;;;;;12.67;3.03;;;7.90;99.90;;;;;;5074085;28;20057;-77
2021/12/29 03:08:21;;;;;;;8.53;2.20;;;7.80;99.90;;;;;;5074028;28;20033;-77
2021/12/29 03:10:52;;;;;;;7.00;1.93;;;7.80;99.90;;;;;;5074009;28;20021;-77
2021/12/29 03:13:18;;;;;;;9.80;2.43;;;7.80;99.90;;;;;;5074191;28;20449;-78
2021/12/29 03:15:44;;;;;;;11.47;2.10;;;7.80;99.90;;;;;;5073724;28;20031;-77
2021/12/29 03:18:09;;;;;;;12.60;2.37;;;7.80;99.90;;;;;;5078972;28;20032;-81
2021/12/29 03:20:35;;;;;;;10.37;1.93;;;7.80;99.90;;;;;;5089954;28;20349;-81
2021/12/29 03:23:01;;;;;;;8.27;1.60;;;7.70;99.90;;;;;;5089271;28;20028;-80
2021/12/29 03:25:27;;;;;;;6.63;1.67;;;7.70;99.90;;;;;;5087592;28;20534;-81
2021/12/29 03:28:00;;;;;;;8.03;1.67;;;7.80;99.90;;;;;;5070359;28;20039;-80
2021/12/29 03:30:35;;;;;;;7.23;1.90;;;7.90;99.90;;;;;;5070918;28;20052;-81
2021/12/29 03:33:05;;;;;;;6.63;1.80;;;7.90;99.90;;;;;;5070267;28;20024;-81
2021/12/29 03:35:37;;;;;;;11.00;2.73;;;7.90;99.90;;;;;;5072415;28;20092;-80
2021/12/29 03:38:06;;;;;;;11.20;1.70;;;7.80;99.90;;;;;;5071439;28;20021;-81
2021/12/29 03:40:35;;;;;;;6.70;1.60;;;7.80;99.90;;;;;;5070586;28;20534;-80
2021/12/29 03:43:01;;;;;;;6.43;1.90;;;7.80;99.90;;;;;;5063881;28;20042;-81
2021/12/29 03:45:26;;;;;;;6.93;1.90;;;7.80;99.90;;;;;;5059927;28;20032;-81
2021/12/29 03:47:52;;;;;;;5.80;1.63;;;8.00;99.90;;;;;;5090374;28;20149;-81
2021/12/29 03:50:18;;;;;;;6.53;2.13;;;8.00;99.90;;;;;;5088960;28;20040;-81
2021/12/29 03:52:44;;;;;;;6.57;1.83;;;7.90;99.90;;;;;;5090131;28;20044;-81
2021/12/29 03:55:10;;;;;;;7.63;1.73;;;7.90;99.90;;;;;;5088954;28;20039;-81
2021/12/29 03:57:35;;;;;;;8.47;1.77;;;8.00;99.90;;;;;;5070202;28;20032;-81
2021/12/29 04:00:03;;;;;;;5.33;1.50;;;8.00;99.90;;;;;;5069824;28;20381;-81
2021/12/29 04:02:31;;;;;;;8.60;1.67;;;7.90;99.90;;;;;;5069551;28;20433;-80
2021/12/29 04:04:57;;;;;;;6.90;2.07;;;8.00;99.90;;;;;;5082802;28;20042;-80
2021/12/29 04:07:22;;;;;;;7.17;1.17;;;8.00;99.90;;;;;;5090274;28;20443;-80
2021/12/29 04:09:48;;;;;;;6.13;1.50;;;8.00;99.90;;;;;;5090054;28;20492;-80
2021/12/29 04:12:13;;;;;;;5.30;1.50;;;8.10;99.90;;;;;;5089972;28;20099;-80
2021/12/29 04:14:39;;;;;;;7.07;1.67;;;8.20;99.90;;;;;;5079726;28;20036;-80
2021/12/29 04:17:09;;;;;;;4.00;1.47;;;8.10;99.90;;;;;;5068505;28;20064;-80
2021/12/29 04:22:21;;;;;;;4.22;1.35;;;8.00;99.90;;;;;;5069980;28;20090;-81
2021/12/29 04:24:47;;;;;;;4.40;1.50;;;7.90;99.90;;;;;;5081397;28;20032;-81
2021/12/29 04:27:12;;;;;;;5.97;1.70;;;8.00;99.90;;;;;;5089918;28;20076;-81
2021/12/29 04:29:38;;;;;;;4.07;1.60;;;7.90;99.90;;;;;;5089779;28;20028;-80
2021/12/29 04:32:04;;;;;;;5.37;1.80;;;7.80;99.90;;;;;;5088731;28;20090;-80
2021/12/29 04:34:29;;;;;;;6.10;1.37;;;7.80;99.90;;;;;;5076959;28;20429;-81
2021/12/29 04:36:55;;;;;;;8.03;1.50;;;7.80;99.90;;;;;;5068561;28;20089;-80
2021/12/29 04:39:21;;;;;;;6.97;1.57;;;7.80;99.90;;;;;;5069561;28;20108;-80
2021/12/29 04:41:46;;;;;;;4.37;1.47;;;7.80;99.90;;;;;;5067858;28;20075;-81
2021/12/29 04:44:12;;;;;;;6.00;1.80;;;7.80;99.90;;;;;;5066197;28;20040;-81
2021/12/29 04:46:40;;;;;;;4.20;1.40;;;7.80;99.90;;;;;;5069967;28;20035;-81
2021/12/29 04:49:10;;;;;;;7.83;1.63;;;7.90;99.90;;;;;;5069815;28;20100;-81
2021/12/29 04:51:43;;;;;;;6.50;1.57;;;7.80;99.90;;;;;;5075028;28;20058;-81
2021/12/29 04:54:08;;;;;;;8.07;1.83;;;7.70;99.90;;;;;;5088429;28;20128;-82
2021/12/29 04:56:37;;;;;;;6.20;1.70;;;7.70;99.90;;;;;;5090272;28;20062;-81
2021/12/29 04:59:04;;;;;;;6.50;1.40;;;7.70;99.90;;;;;;5090267;28;20036;-81
2021/12/29 05:01:30;;;;;;;8.47;1.80;;;7.50;99.90;;;;;;5089427;28;20032;-81
2021/12/29 05:03:56;;;;;;;6.60;1.60;;;7.50;99.90;;;;;;5079885;28;20102;-81
2021/12/29 05:08:50;;;;;;;6.97;2.13;;;7.60;99.90;;;;;;5091162;28;20128;-81
2021/12/29 05:11:16;;;;;;;5.00;1.50;;;7.60;99.90;;;;;;5076497;28;20024;-81
2021/12/29 05:13:43;;;;;;;5.67;1.87;;;7.50;99.90;;;;;;5073547;28;20050;-81
2021/12/29 05:16:12;;;;;;;5.57;1.50;;;7.50;99.90;;;;;;5073616;28;20021;-80
2021/12/29 05:18:38;;;;;;;3.93;1.60;;;7.50;99.90;;;;;;5073194;28;20094;-81
2021/12/29 05:21:07;;;;;;;7.17;1.37;;;7.40;99.90;;;;;;5082683;28;20107;-81
2021/12/29 05:23:33;;;;;;;8.63;1.80;;;7.30;99.90;;;;;;5079106;28;20346;-81
2021/12/29 05:25:58;;;;;;;8.23;1.37;;;7.20;99.90;;;;;;5072999;28;20036;-81
2021/12/29 05:28:24;;;;;;;6.77;1.60;;;7.20;99.90;;;;;;5072934;28;20461;-81
2021/12/29 05:30:51;;;;;;;6.60;2.10;;;7.20;99.90;;;;;;5076744;28;20028;-81
2021/12/29 05:33:17;;;;;;;7.03;1.80;;;7.30;99.90;;;;;;5091875;28;20863;-81
2021/12/29 05:35:43;;;;;;;8.50;1.77;;;7.30;99.90;;;;;;5091712;28;20410;-81
2021/12/29 05:38:10;;;;;;;9.97;1.63;;;7.30;99.90;;;;;;5092814;28;20481;-82
2021/12/29 05:40:35;;;;;;;7.20;1.40;;;7.30;99.90;;;;;;5085085;28;20437;-81
2021/12/29 05:43:01;;;;;;;8.40;1.70;;;7.30;99.90;;;;;;5062147;28;20112;-80
2021/12/29 05:45:29;;;;;;;3.30;1.40;;;7.30;99.90;;;;;;5079177;28;20036;-78
2021/12/29 05:47:55;;;;;;;6.53;1.63;;;7.30;99.90;;;;;;5092229;28;20115;-77
2021/12/29 05:50:25;;;;;;;7.37;1.73;;;7.30;99.90;;;;;;5093704;28;20505;-77
2021/12/29 05:52:51;;;;;;;6.17;1.60;;;7.30;99.90;;;;;;5093192;28;20706;-78
2021/12/29 05:55:17;;;;;;;4.20;1.37;;;7.30;99.90;;;;;;5091977;28;20020;-78
2021/12/29 05:57:43;;;;;;;5.10;1.40;;;7.30;99.90;;;;;;5093304;28;20456;-76
2021/12/29 06:00:12;;;;;;;8.10;1.53;;;7.30;99.90;;;;;;5093286;28;20129;-77
2021/12/29 06:02:41;;;;;;;6.87;1.83;;;7.20;99.90;;;;;;5093257;28;20021;-78
2021/12/29 06:05:07;;;;;;;7.27;1.70;;;7.20;99.90;;;;;;5094917;28;20028;-77
2021/12/29 06:07:34;;;;;;;6.47;1.60;;;7.10;99.90;;;;;;5093198;28;20535;-77
2021/12/29 06:10:00;;;;;;;7.13;1.97;;;7.20;99.90;;;;;;5094663;28;20039;-77
2021/12/29 06:12:28;;;;;;;10.17;1.97;;;7.10;99.90;;;;;;5079160;28;20206;-77
2021/12/29 06:14:55;;;;;;;8.87;1.73;;;7.10;99.90;;;;;;5072906;28;20369;-76
2021/12/29 06:17:20;;;;;;;7.67;2.03;;;7.10;99.90;;;;;;5073912;28;20399;-77
2021/12/29 06:19:46;;;;;;;7.97;1.40;;;7.20;99.90;;;;;;5073855;28;20028;-76
2021/12/29 06:22:12;;;;;;;6.33;1.77;;;7.10;99.90;;;;;;5072688;28;20111;-76
2021/12/29 06:24:42;;;;;;;5.00;1.40;;;7.20;99.90;;;;;;5083520;28;20028;-77
2021/12/29 06:27:08;;;;;;;5.63;1.60;;;7.20;99.90;;;;;;5092485;28;20029;-77
2021/12/29 06:29:35;;;;;;;6.27;1.17;;;7.30;99.90;;;;;;5092814;28;20024;-77
2021/12/29 06:32:01;;;;;;;5.97;1.30;;;7.20;99.90;;;;;;5084342;28;20465;-77
2021/12/29 06:34:27;;;;;;;6.07;1.60;;;7.20;99.90;;;;;;5072618;28;20365;-77
2021/12/29 06:36:53;;;;;;;6.17;1.50;;;7.30;99.90;;;;;;5072305;28;20108;-77
2021/12/29 06:39:19;;;;;;;6.80;1.53;;;7.40;99.90;;;;;;5072611;28;20044;-76
2021/12/29 06:41:45;;;;;;;5.80;1.40;;;7.30;99.90;;;;;;5068918;28;20032;-77
2021/12/29 06:44:11;;;;;;;4.73;1.57;;;7.20;99.90;;;;;;5077949;28;20021;-77
2021/12/29 06:46:39;;;;;;;6.93;1.30;;;7.30;99.90;;;;;;5072300;28;20522;-78
2021/12/29 06:49:04;;;;;;;2.93;1.47;;;7.30;99.90;;;;;;5072839;28;20103;-78
2021/12/29 06:51:30;;;;;;;5.07;1.40;;;7.30;99.90;;;;;;5084042;28;20056;-78
2021/12/29 06:53:56;;;;;;;5.13;1.47;;;7.30;99.90;;;;;;5091787;28;20484;-78
2021/12/29 06:56:21;;;;;;;5.57;1.70;;;7.30;99.90;;;;;;5094774;28;20095;-78
2021/12/29 06:58:49;;;;;;;7.10;1.63;;;7.30;99.90;;;;;;5079387;28;20016;-77
2021/12/29 07:01:16;;;;;;;4.30;1.37;;;7.30;99.90;;;;;;5072581;28;20066;-77
2021/12/29 07:03:42;;;;;;;5.70;1.80;;;7.30;99.90;;;;;;5072919;28;20143;-77
2021/12/29 07:06:10;;;;;;;4.73;1.37;;;7.20;99.90;;;;;;5074083;28;20033;-77
2021/12/29 07:08:37;;;;;;;6.40;1.57;;;7.20;99.90;;;;;;5075352;28;20090;-76
2021/12/29 07:11:03;;;;;;;5.30;1.60;;;7.10;99.90;;;;;;5075623;28;20133;-75
2021/12/29 07:13:28;;;;;;;11.17;2.00;;;7.20;99.90;;;;;;5074678;28;20088;-75
2021/12/29 07:15:54;;;;;;;5.20;1.50;;;7.30;99.90;;;;;;5075580;28;20016;-75
2021/12/29 07:18:20;;;;;;;4.23;1.27;;;7.40;99.90;;;;;;5080845;28;20031;-74
2021/12/29 07:20:45;;;;;;;4.77;1.30;;;7.40;99.90;;;;;;5086779;28;20457;-74
2021/12/29 07:23:14;;;;;;;6.37;1.50;;;7.40;99.90;;;;;;5080963;28;20444;-74
2021/12/29 07:25:39;;;;;;;5.47;1.60;;;7.30;99.90;;;;;;5076047;28;20044;-66
2021/12/29 07:28:05;;;;;;;8.87;2.07;;;7.40;99.90;;;;;;5082327;28;20741;-75
2021/12/29 07:30:31;;;;;;;6.17;1.30;;;7.40;99.90;;;;;;5077859;28;20499;-78
2021/12/29 07:32:56;;;;;;;7.40;1.30;;;7.40;99.90;;;;;;5087005;28;20018;-77
2021/12/29 07:35:22;;;;;;;5.37;1.70;;;7.40;99.90;;;;;;5084804;28;20114;-75
2021/12/29 07:37:48;;;;;;;2.80;1.20;;;7.50;99.90;;;;;;5074022;28;20369;-82
2021/12/29 07:40:13;;;;;;;6.63;1.23;;;7.40;99.90;;;;;;5079219;28;20091;-82
2021/12/29 07:42:41;;;;;;;6.20;1.40;;;7.40;99.90;;;;;;5080377;28;20031;-81
2021/12/29 07:45:08;;;;;;;4.40;1.33;;;7.40;99.90;;;;;;5078077;28;20425;-76
2021/12/29 07:47:41;;;;;;;5.50;1.30;;;7.40;99.90;;;;;;5081706;28;20024;-75
2021/12/29 07:50:07;;;;;;;5.27;1.60;;;7.40;99.90;;;;;;5076179;28;20080;-75
2021/12/29 07:52:32;;;;;;;3.03;1.23;;;7.40;99.90;;;;;;5078872;28;20068;-75
2021/12/29 07:54:58;;;;;;;3.10;1.30;;;7.50;99.90;;;;;;5081639;28;20082;-75
2021/12/29 07:57:23;;;;;;;4.40;1.40;;;7.50;99.90;;;;;;5086764;28;20376;-76
2021/12/29 07:59:49;;;;;;;3.57;1.50;;;7.60;99.90;;;;;;5084660;28;20063;-74
2021/12/29 08:02:18;;;;;;;3.20;1.27;;;7.60;99.90;;;;;;5078677;28;20039;-75
2021/12/29 08:04:45;;;;;;;5.23;1.33;;;7.60;99.90;;;;;;5083665;28;20446;-75
2021/12/29 08:07:10;;;;;;;6.20;1.50;;;7.70;99.90;;;;;;5082308;28;20472;-75
2021/12/29 08:09:36;;;;;;;4.43;1.60;;;7.60;99.90;;;;;;5085001;28;20012;-76
2021/12/29 08:12:03;;;;;;;6.23;1.60;;;7.60;99.90;;;;;;5083302;28;20031;-82
2021/12/29 08:14:29;;;;;;;5.43;1.33;;;7.60;99.90;;;;;;5082057;28;20036;-82
2021/12/29 08:16:54;;;;;;;5.97;1.57;;;7.60;99.90;;;;;;5078238;28;20032;-81
2021/12/29 08:19:20;;;;;;;4.63;1.30;;;7.70;99.90;;;;;;5077793;28;20373;-83
2021/12/29 08:21:45;;;;;;;4.97;1.57;;;7.70;99.90;;;;;;5078489;28;20030;-82
2021/12/29 08:24:11;;;;;;;3.77;1.30;;;7.70;99.90;;;;;;5076904;28;20106;-82
2021/12/29 08:26:37;;;;;;;3.60;1.10;;;7.80;99.90;;;;;;5079306;28;20082;-79
2021/12/29 08:29:03;;;;;;;3.90;1.47;;;7.80;99.90;;;;;;5072413;28;20376;-80
2021/12/29 08:31:31;;;;;;;4.23;1.30;;;7.90;99.90;;;;;;5072272;28;20079;-79
2021/12/29 08:33:57;;;;;;;6.07;1.27;;;8.00;99.90;;;;;;5070744;28;20103;-80
2021/12/29 08:36:23;;;;;;;5.73;1.60;;;7.90;99.90;;;;;;5076395;28;20337;-80
2021/12/29 08:38:49;;;;;;;9.67;2.33;;;7.90;99.90;;;;;;5076329;28;20028;-80
2021/12/29 08:41:14;;;;;;;4.77;1.10;;;8.00;99.90;;;;;;5082571;28;20386;-76
2021/12/29 08:43:40;;;;;;;4.73;1.30;;;8.00;99.90;;;;;;5075738;28;20024;-81
2021/12/29 08:46:08;;;;;;;2.87;1.20;;;8.10;99.90;;;;;;5071565;28;20020;-83
2021/12/29 08:48:37;;;;;;;3.47;1.10;;;8.20;99.90;;;;;;5070912;28;20043;-65
2021/12/29 08:51:02;;;;;;;4.53;1.27;;;8.20;99.90;;;;;;5073419;28;20760;-78
2021/12/29 08:53:31;;;;;;;3.00;1.20;;;8.20;99.90;;;;;;5059454;28;20044;-81
2021/12/29 08:55:57;;;;;;;5.50;1.27;;;8.30;99.90;;;;;;5063460;28;20017;-78
2021/12/29 08:58:26;;;;;;;3.37;1.20;;;8.30;99.90;;;;;;5056210;28;20036;-77
2021/12/29 09:00:54;;;;;;;4.70;1.67;;;8.30;99.90;;;;;;5066331;28;20169;-81
2021/12/29 09:03:21;;;;;;;5.50;1.83;;;8.40;99.90;;;;;;5056725;28;20377;-80
2021/12/29 09:05:51;;;;;;;2.77;1.10;;;8.40;99.90;;;;;;5056318;28;20021;-79
2021/12/29 09:08:17;;;;;;;7.57;1.93;;;8.40;99.90;;;;;;5071169;28;20107;-79
2021/12/29 09:10:44;;;;;;;3.13;1.30;;;8.50;99.90;;;;;;5074834;28;20103;-79
2021/12/29 09:13:10;;;;;;;8.70;1.87;;;8.50;99.90;;;;;;5076428;28;20048;-79
2021/12/29 09:15:36;;;;;;;4.73;1.20;;;8.70;99.90;;;;;;5076118;28;20054;-79
2021/12/29 09:18:02;;;;;;;4.20;1.30;;;8.80;99.90;;;;;;5076287;28;20052;-79
2021/12/29 09:20:30;;;;;;;5.33;1.30;;;8.90;99.90;;;;;;5076343;28;20369;-79
2021/12/29 09:23:03;;;;;;;5.73;1.20;;;8.90;99.90;;;;;;5076458;28;20024;-80
2021/12/29 09:25:29;;;;;;;6.30;1.30;;;8.90;99.90;;;;;;5076164;28;20044;-79
2021/12/29 09:27:55;;;;;;;3.40;1.20;;;8.90;99.90;;;;;;5075858;28;20044;-79
2021/12/29 09:30:23;;;;;;;3.10;1.50;;;9.10;99.90;;;;;;5076063;28;20112;-79
2021/12/29 09:32:49;;;;;;;2.83;1.33;;;9.10;99.90;;;;;;5075961;28;20442;-79
2021/12/29 09:35:16;;;;;;;7.70;1.80;;;9.00;99.90;;;;;;5076161;28;20044;-79
2021/12/29 09:37:42;;;;;;;6.80;2.10;;;9.20;99.90;;;;;;5076205;28;20028;-79
2021/12/29 09:40:09;;;;;;;5.47;1.87;;;9.30;99.90;;;;;;5074486;28;20054;-79
2021/12/29 09:42:35;;;;;;;6.03;1.90;;;9.40;99.90;;;;;;5074516;28;20064;-77
2021/12/29 09:48:04;;;;;;;4.50;1.60;;;9.50;99.90;;;;;;5062680;28;20835;-80
2021/12/29 09:50:30;;;;;;;5.67;1.40;;;9.50;99.90;;;;;;5080334;28;20077;-79
2021/12/29 09:52:57;;;;;;;5.70;1.80;;;9.50;99.90;;;;;;5086154;28;20079;-79
2021/12/29 09:55:24;;;;;;;5.00;1.50;;;9.50;99.90;;;;;;5074016;28;20056;-80
2021/12/29 09:57:52;;;;;;;6.37;2.07;;;9.50;99.90;;;;;;5085792;28;20380;-80
2021/12/29 10:00:21;;;;;;;9.17;2.17;;;9.30;99.90;;;;;;5075770;28;20239;-80
2021/12/29 10:02:48;;;;;;;6.77;2.20;;;9.30;99.90;;;;;;5076580;28;20029;-80
2021/12/29 10:05:14;;;;;;;6.90;2.33;;;9.30;99.90;;;;;;5074780;28;20150;-80
2021/12/29 10:07:40;;;;;;;4.63;2.00;;;9.40;99.90;;;;;;5070956;28;20119;-81
2021/12/29 10:10:20;;;;;;;8.63;2.50;;;9.60;99.90;;;;;;5070027;28;20033;-81
2021/12/29 10:12:46;;;;;;;8.10;2.40;;;9.70;99.90;;;;;;5072763;28;20047;-79
2021/12/29 10:15:12;;;;;;;6.47;1.93;;;9.70;99.90;;;;;;5074164;28;20016;-79
2021/12/29 10:17:38;;;;;;;9.17;2.50;;;9.80;99.90;;;;;;5065250;28;20425;-79
2021/12/29 10:20:12;;;;;;;8.60;2.10;;;9.70;99.90;;;;;;5070178;28;20158;-79
2021/12/29 10:22:41;;;;;;;5.40;1.67;;;9.80;99.90;;;;;;5073699;28;20081;-79
2021/12/29 10:25:12;;;;;;;7.50;1.90;;;9.80;99.90;;;;;;5082741;28;20024;-79
2021/12/29 10:27:39;;;;;;;7.07;2.53;;;9.80;99.90;;;;;;5094421;28;20064;-80
2021/12/29 10:30:27;;;;;;;7.20;2.10;;;9.70;99.90;;;;;;5094391;28;20025;-80
2021/12/29 10:32:55;;;;;;;7.53;2.47;;;9.70;99.90;;;;;;5070068;28;20498;-79
2021/12/29 10:35:24;;;;;;;10.70;3.20;;;9.60;99.90;;;;;;5074012;28;20029;-80
2021/12/29 10:37:51;;;;;;;7.47;2.37;;;9.50;99.90;;;;;;5072367;28;20078;-79
2021/12/29 10:40:31;;;;;;;7.73;2.03;;;9.50;99.90;;;;;;5084246;22;20035;-77
2021/12/29 10:43:00;;;;;;;9.10;2.20;;;9.50;99.90;;;;;;5023129;28;20071;-80
2021/12/29 10:45:35;;;;;;;7.30;1.93;;;9.40;99.90;;;;;;5010484;28;20029;-79
2021/12/29 10:48:01;;;;;;;7.60;2.25;;;9.40;99.90;;;;;;5011595;28;20045;-80
2021/12/29 10:50:28;;;;;;;7.10;2.00;;;9.40;99.90;;;;;;5011805;28;20033;-78
2021/12/29 10:52:57;;;;;;;4.87;2.17;;;9.50;99.90;;;;;;5011292;28;20029;-79
2021/12/29 10:55:35;;;;;;;5.43;1.90;;;9.50;99.90;;;;;;5011754;28;20467;-79
2021/12/29 10:58:11;;;;;;;12.03;2.87;;;9.60;99.90;;;;;;5011589;28;20113;-79
2021/12/29 11:00:41;;;;;;;6.60;2.20;;;9.60;99.90;;;;;;5011569;28;20352;-80
2021/12/29 11:03:12;;;;;;;5.67;1.67;;;9.70;99.90;;;;;;5011368;28;20022;-80
2021/12/29 11:05:41;;;;;;;6.33;1.97;;;9.70;99.90;;;;;;5011287;28;20088;-79
2021/12/29 11:08:09;;;;;;;9.90;2.70;;;9.70;99.90;;;;;;5011421;28;20030;-80
2021/12/29 11:10:35;;;;;;;7.40;1.83;;;9.60;99.90;;;;;;5010994;28;20152;-80
2021/12/29 11:13:01;;;;;;;4.77;2.00;;;9.60;99.90;;;;;;5011021;28;20030;-79
2021/12/29 11:15:41;;;;;;;8.67;2.70;;;9.50;99.90;;;;;;5026431;28;20036;-80
2021/12/29 11:18:10;;;;;;;9.33;2.30;;;9.50;99.90;;;;;;5010855;28;20034;-79
2021/12/29 11:20:37;;;;;;;8.23;2.90;;;9.60;99.90;;;;;;5011372;28;20133;-79
2021/12/29 11:23:07;;;;;;;7.50;2.50;;;9.70;99.90;;;;;;5011286;28;20036;-79
2021/12/29 11:25:34;;;;;;;10.73;2.43;;;9.70;99.90;;;;;;5011252;28;20026;-80
2021/12/29 11:28:01;;;;;;;9.90;2.17;;;9.80;99.90;;;;;;5010968;28;20358;-78
2021/12/29 11:30:27;;;;;;;9.20;2.13;;;9.80;99.90;;;;;;5011584;28;20022;-80
2021/12/29 11:33:07;;;;;;;7.87;1.80;;;9.80;99.90;;;;;;5009794;28;20022;-79
2021/12/29 11:35:42;;;;;;;8.10;2.13;;;9.60;99.90;;;;;;5011452;28;20029;-79
2021/12/29 11:38:09;;;;;;;12.50;3.10;;;9.60;99.90;;;;;;5011371;28;20030;-79
2021/12/29 11:40:40;;;;;;;7.83;3.17;;;9.70;99.90;;;;;;5010835;28;20088;-79
2021/12/29 11:43:07;;;;;;;8.57;2.30;;;9.70;99.90;;;;;;5020567;28;20113;-79
2021/12/29 11:45:34;;;;;;;15.37;3.30;;;9.70;99.90;;;;;;5011944;28;20041;-79
2021/12/29 11:47:59;;;;;;;11.67;2.80;;;9.60;99.90;;;;;;5010852;28;20037;-79
2021/12/29 11:50:33;;;;;;;11.90;3.10;;;9.70;99.90;;;;;;5009303;28;20056;-80
2021/12/29 11:53:09;;;;;;;14.73;4.13;;;9.80;99.90;;;;;;5010871;28;20109;-80
2021/12/29 11:55:42;;;;;;;11.53;2.57;;;9.90;99.90;;;;;;5011050;28;20022;-80
2021/12/29 11:58:21;;;;;;;10.93;3.47;;;9.70;99.90;;;;;;5010619;28;20541;-79
2021/12/29 12:00:58;;;;;;;15.17;3.57;;;9.80;99.90;;;;;;5010739;28;20099;-79
2021/12/29 12:03:23;;;;;;;10.73;2.40;;;9.70;99.90;;;;;;5010454;28;20033;-79
2021/12/29 12:05:49;;;;;;;10.90;3.37;;;9.80;99.90;;;;;;5010819;28;20463;-80
2021/12/29 12:08:24;;;;;;;10.50;2.77;;;9.90;99.90;;;;;;5010333;28;20065;-79
2021/12/29 12:10:50;;;;;;;17.30;3.55;;;9.90;99.90;;;;;;5010383;28;20045;-80
2021/12/29 12:13:25;;;;;;;11.83;3.40;;;9.90;99.90;;;;;;5010271;28;20022;-79
2021/12/29 12:15:52;;;;;;;;;;;10.00;99.90;;;;;;5015849;28;20024;-80
2021/12/29 12:18:18;;;;;;;14.93;3.10;;;10.00;99.90;;;;;;5022809;28;20399;-79
2021/12/29 12:20:45;;;;;;;10.90;2.70;;;9.90;99.90;;;;;;5027376;28;20029;-80
2021/12/29 12:23:26;;;;;;;13.43;2.70;;;9.80;99.90;;;;;;5025877;28;20033;-80
2021/12/29 12:25:53;;;;;;;11.90;3.17;;;9.80;99.90;;;;;;5027535;28;20108;-80
2021/12/29 12:28:23;;;;;;;12.87;2.83;;;9.70;99.90;;;;;;5027336;28;20480;-80
2021/12/29 12:30:53;;;;;;;10.47;3.13;;;9.70;99.90;;;;;;5027358;28;20129;-80
2021/12/29 12:33:28;;;;;;;13.00;2.77;;;9.70;99.90;;;;;;5026127;28;20359;-80
2021/12/29 12:35:58;;;;;;;17.37;3.10;;;9.80;99.90;;;;;;5027603;28;20024;-80
2021/12/29 12:38:27;;;;;;;9.97;3.00;;;9.80;99.90;;;;;;5027080;28;20038;-80
2021/12/29 12:41:07;;;;;;;11.33;3.50;;;9.70;99.90;;;;;;5026639;28;20077;-78
2021/12/29 12:43:36;;;;;;;15.03;3.50;;;9.70;99.90;;;;;;5023736;28;20040;-78
2021/12/29 12:46:02;;;;;;;11.27;2.90;;;9.70;99.90;;;;;;5031261;28;20033;-77
2021/12/29 12:48:33;;;;;;;11.63;2.40;;;9.70;99.90;;;;;;5032179;28;20091;-77
2021/12/29 12:51:14;;;;;;;13.97;3.20;;;9.60;99.90;;;;;;5032299;28;20026;-77
2021/12/29 12:53:41;;;;;;;14.70;4.37;;;9.60;99.90;;;;;;5032278;28;20044;-78
2021/12/29 12:56:15;;;;;;;17.13;3.87;;;9.70;99.90;;;;;;5032042;28;20048;-78
2021/12/29 12:58:44;;;;;;;16.77;4.43;;;9.60;99.90;;;;;;5032028;28;20029;-78
2021/12/29 13:01:14;;;;;;;13.07;4.20;;;9.50;99.90;;;;;;5030784;28;20084;-77
2021/12/29 13:03:41;;;;;;;16.70;4.20;;;9.40;99.90;;;;;;5032357;28;20028;-77
2021/12/29 13:06:17;;;;;;;14.37;4.53;;;9.60;99.90;;;;;;5031642;28;20451;-77
2021/12/29 13:08:46;;;;;;;12.70;4.70;;;9.50;99.90;;;;;;5031639;28;20028;-77